createdAt,value
2023-02-04T00:00:45.412Z,96859.83
2023-02-04T00:03:34.225Z,96862.04
2023-02-04T00:06:10.240Z,96857.70
2023-02-04T00:08:45.887Z,96859.98
2023-02-04T00:11:14.765Z,96859.92
2023-02-04T00:13:50.651Z,96864.70
2023-02-04T00:16:23.279Z,96863.82
2023-02-04T00:18:54.964Z,96859.50
2023-02-04T00:21:27.582Z,96855.88
2023-02-04T00:24:14.215Z,96853.45
2023-02-04T00:27:05.887Z,96857.33
2023-02-04T00:29:33.334Z,96854.04
2023-02-04T00:32:09.703Z,96850.84
2023-02-04T00:34:41.123Z,96852.90
2023-02-04T00:37:15.709Z,96852.64
2023-02-04T00:40:11.229Z,96857.91
2023-02-04T00:42:50.457Z,96855.48
2023-02-04T00:45:35.308Z,96855.10
2023-02-04T00:48:20.397Z,96855.16
2023-02-04T00:50:53.438Z,96850.89
2023-02-04T00:53:24.034Z,96854.20
2023-02-04T00:56:00.215Z,96851.52
2023-02-04T00:58:34.449Z,96859.55
2023-02-04T01:01:31.636Z,96857.02
2023-02-04T01:04:35.184Z,96858.09
2023-02-04T01:07:02.661Z,96853.09
2023-02-04T01:09:35.556Z,96852.27
2023-02-04T01:12:11.366Z,96848.31
2023-02-04T01:14:47.805Z,96846.20
2023-02-04T01:17:20.691Z,96843.20
2023-02-04T01:20:03.234Z,96844.65
2023-02-04T01:22:44.425Z,96843.88
2023-02-04T01:25:11.684Z,96843.94
2023-02-04T01:27:44.529Z,96845.05
2023-02-04T01:30:16.183Z,96849.25
2023-02-04T01:32:46.432Z,96851.75
2023-02-04T01:35:18.202Z,96851.84
2023-02-04T01:37:56.603Z,96853.96
2023-02-04T01:40:30.915Z,96854.25
2023-02-04T01:43:03.130Z,96849.56
2023-02-04T01:45:33.736Z,96847.38
2023-02-04T01:48:07.530Z,96848.73
2023-02-04T01:50:39.180Z,96849.23
2023-02-04T01:53:10.820Z,96847.23
2023-02-04T01:55:42.471Z,96847.19
2023-02-04T01:58:18.853Z,96849.36
2023-02-04T02:00:50.771Z,96850.63
2023-02-04T02:03:31.911Z,96850.92
2023-02-04T02:06:09.971Z,96853.48
2023-02-04T02:08:47.895Z,96856.72
2023-02-04T02:11:20.033Z,96856.39
2023-02-04T02:13:51.484Z,96859.85
2023-02-04T02:16:37.957Z,96860.80
2023-02-04T02:19:29.255Z,96856.80
2023-02-04T02:23:09.010Z,96855.69
2023-02-04T02:25:41.320Z,96858.78
2023-02-04T02:28:20.767Z,96858.11
2023-02-04T02:30:52.115Z,96859.64
2023-02-04T02:33:25.857Z,96859.37
2023-02-04T02:36:23.953Z,96861.38
2023-02-04T02:38:58.184Z,96862.49
2023-02-04T02:42:07.093Z,96861.23
2023-02-04T02:44:44.886Z,96866.36
2023-02-04T02:47:25.828Z,96868.69
2023-02-04T02:49:54.164Z,96868.47
2023-02-04T02:52:25.838Z,96874.02
2023-02-04T02:55:20.184Z,96868.44
2023-02-04T02:57:53.503Z,96868.15
2023-02-04T03:04:29.608Z,96863.91
2023-02-04T03:07:21.179Z,96860.66
2023-02-04T03:10:04.303Z,96861.90
2023-02-04T03:12:50.252Z,96857.95
2023-02-04T03:15:40.015Z,96857.02
2023-02-04T03:18:09.906Z,96860.34
2023-02-04T03:20:51.400Z,96862.53
2023-02-04T03:23:46.031Z,96865.26
2023-02-04T03:26:14.276Z,96868.45
2023-02-04T03:28:54.169Z,96870.89
2023-02-04T03:31:31.812Z,96871.46
2023-02-04T03:34:20.884Z,96870.02
2023-02-04T03:37:06.313Z,96867.34
2023-02-04T03:39:33.922Z,96867.42
2023-02-04T03:42:05.767Z,96864.97
2023-02-04T03:44:42.871Z,96864.63
2023-02-04T03:47:35.159Z,96863.59
2023-02-04T03:50:25.657Z,96862.52
2023-02-04T03:53:08.978Z,96853.52
2023-02-04T03:56:01.143Z,96852.45
2023-02-04T03:58:44.864Z,96850.02
2023-02-04T04:01:23.642Z,96851.59
2023-02-04T04:04:07.188Z,96850.61
2023-02-04T04:06:45.855Z,96849.55
2023-02-04T04:09:16.593Z,96845.38
2023-02-04T04:11:48.734Z,96845.95
2023-02-04T04:14:30.174Z,96847.77
2023-02-04T04:17:06.378Z,96852.95
2023-02-04T04:19:50.709Z,96853.45
2023-02-04T04:22:39.852Z,96856.17
2023-02-04T04:25:29.397Z,96850.61
2023-02-04T04:28:06.100Z,96854.09
2023-02-04T04:30:55.017Z,96848.35
2023-02-04T04:33:57.358Z,96849.82
2023-02-04T04:36:32.784Z,96848.49
2023-02-04T04:39:04.247Z,96846.98
2023-02-04T04:41:40.988Z,96838.46
2023-02-04T04:44:17.789Z,96842.87
2023-02-04T04:46:51.371Z,96844.33
2023-02-04T04:49:23.180Z,96842.55
2023-02-04T04:52:00.956Z,96843.17
2023-02-04T04:54:36.348Z,96843.35
2023-02-04T04:57:24.440Z,96847.13
2023-02-04T05:00:10.816Z,96844.23
2023-02-04T05:02:59.520Z,96845.42
2023-02-04T05:05:43.756Z,96856.31
2023-02-04T05:08:20.299Z,96853.46
2023-02-04T05:10:51.709Z,96855.31
2023-02-04T05:13:25.449Z,96851.05
2023-02-04T05:16:18.803Z,96853.33
2023-02-04T05:18:46.359Z,96856.60
2023-02-04T05:21:18.047Z,96859.36
2023-02-04T05:23:49.632Z,96857.80
2023-02-04T05:26:29.956Z,96854.98
2023-02-04T05:29:02.083Z,96861.73
2023-02-04T05:31:38.238Z,96875.08
2023-02-04T05:34:12.599Z,96879.84
2023-02-04T05:36:49.095Z,96878.16
2023-02-04T05:39:24.920Z,96879.84
2023-02-04T05:42:01.492Z,96881.56
2023-02-04T05:45:17.244Z,96878.20
2023-02-04T05:47:55.277Z,96878.67
2023-02-04T05:50:41.390Z,96879.17
2023-02-04T05:53:37.766Z,96878.30
2023-02-04T05:56:53.736Z,96877.82
2023-02-04T05:59:53.105Z,96882.87
2023-02-04T06:02:39.120Z,96882.49
2023-02-04T06:05:23.363Z,96876.67
2023-02-04T06:07:55.192Z,96882.70
2023-02-04T06:10:33.236Z,96885.38
2023-02-04T06:13:11.549Z,96889.89
2023-02-04T06:15:40.877Z,96893.20
2023-02-04T06:18:15.125Z,96892.77
2023-02-04T06:20:50.447Z,96892.43
2023-02-04T06:23:28.210Z,96893.90
2023-02-04T06:26:00.969Z,96889.92
2023-02-04T06:28:49.800Z,96887.20
2023-02-04T06:31:19.175Z,96894.27
2023-02-04T06:33:48.681Z,96892.29
2023-02-04T06:36:23.343Z,96894.69
2023-02-04T06:38:59.172Z,96892.04
2023-02-04T06:41:30.710Z,96899.42
2023-02-04T06:44:02.408Z,96897.94
2023-02-04T06:46:58.308Z,96910.23
2023-02-04T06:50:05.081Z,96916.23
2023-02-04T06:52:35.531Z,96917.87
2023-02-04T06:55:06.885Z,96922.20
2023-02-04T06:57:38.503Z,96922.59
2023-02-04T07:00:18.659Z,96924.09
2023-02-04T07:03:25.788Z,96920.70
2023-02-04T07:06:22.009Z,96915.90
2023-02-04T07:09:10.707Z,96912.33
2023-02-04T07:12:06.049Z,96901.31
2023-02-04T07:14:51.614Z,96907.45
2023-02-04T07:17:22.868Z,96915.62
2023-02-04T07:19:57.320Z,96916.48
2023-02-04T07:22:37.280Z,96913.95
2023-02-04T07:25:27.801Z,96923.55
2023-02-04T07:27:58.738Z,96921.73
2023-02-04T07:30:33.229Z,96924.29
2023-02-04T07:33:00.739Z,96923.89
2023-02-04T07:35:37.530Z,96919.86
2023-02-04T07:38:07.505Z,96919.91
2023-02-04T07:40:39.169Z,96921.35
2023-02-04T07:43:09.376Z,96918.95
2023-02-04T07:45:41.277Z,96917.21
2023-02-04T07:48:13.100Z,96914.60
2023-02-04T07:50:44.691Z,96918.73
2023-02-04T07:53:20.326Z,96920.30
2023-02-04T07:55:54.481Z,96933.63
2023-02-04T07:58:25.523Z,96932.20
2023-02-04T08:00:56.849Z,96927.48
2023-02-04T08:03:33.013Z,96928.83
2023-02-04T08:06:04.614Z,96928.77
2023-02-04T08:08:36.213Z,96927.92
2023-02-04T08:11:07.733Z,96927.84
2023-02-04T08:13:39.232Z,96932.37
2023-02-04T08:16:13.424Z,96935.27
